Hauptseite
METAR-TAF:

METAR-TAF

Flughäfen :

Southampton International Airport

Southampton, England

Breite: 50-54N, Länge: 001-24W, Höhe: 9 m

Beobachtung

Neuester Wetterbericht von vor 6 Stunden und 2 Minuten, um 21:50 UTC
Windstille
Temperatur 2°C
Luftfeuchtigkeit 93%
Luftdruck 1037 hPa
Sichtweite 10 km oder mehr
keine Wolken unter 1500 m und keine Kumulonimbus oder Gewitterwolken

METAR: EGHI 222150Z 00000KT CAVOK 02/01 Q1037

Zeit: 04:52 (03:52 UTC)

Prognose

Neuester Wetterbericht von vor 10 Stunden und 56 Minuten, um 16:56 UTC
Gültige Prognose vom 22 um 18 UTC bis 22 um 22 UTC
Wind 4 kt aus unterschiedlichen Richtungen
Sichtweite 10 km oder mehr
keine Wolken unter 1500 m und keine Kumulonimbus oder Gewitterwolken

TAF: EGHI 221656Z 2218/2222 VRB04KT CAVOK

Wetterbeobachtungen und Prognosen von mehr als 4000 Flughäfen (METAR und TAF Bericht).

Die verfügbaren Stationen werden durch gelbe und rote Markierungen auf der Karte dargestellt.

Führen Sie die Maus auf sie, um den Namen der Station zu sehen.

Darauf klicken, um die Beobachtung von Wetterbeobachtungen und Prognosen zu sehen.

Um die Karte zu ändern : klicken Sie auf den grünen Tasten mit einem schwarzen Kreuz Zum Vergrößern, auf den grünen Button mit einem Gedankenstrich zu verkleinern, oder auf die grünen Pfeile für benachbarte Karten.


METAR-TAF: